Time;durP1;ratioP1;P1;durP2;ratioP2;P2;SDS_P1;SDS_P2;PMS_P1;PMS_P2;Temp;Humidity;BMP_temperature;BMP_pressure;BME280_temperature;BME280_humidity;BME280_pressure;Samples;Min_cycle;Max_cycle;Signal;HPM_P1;HPM_P2
2024/01/08 00:00:42;;;;;;;7.45;6.00;;;;;;;9.87;74.89;93064.75;4203624;28;20052;-73
2024/01/08 00:02:44;;;;;;;7.85;5.38;;;;;;;9.90;75.12;93069.63;4204432;28;20067;-73
2024/01/08 00:04:47;;;;;;;11.07;6.32;;;;;;;9.91;75.34;93071.22;4196060;28;20048;-75
2024/01/08 00:06:50;;;;;;;9.68;5.68;;;;;;;9.91;75.21;93072.00;4200368;28;20064;-73
2024/01/08 00:08:52;;;;;;;8.27;5.68;;;;;;;9.96;75.95;93074.03;4200462;28;20048;-74
2024/01/08 00:10:54;;;;;;;7.65;4.57;;;;;;;9.93;75.19;93075.25;4196177;28;20107;-74
2024/01/08 00:12:56;;;;;;;6.20;4.60;;;;;;;9.94;75.40;93070.84;4203582;28;20502;-73
2024/01/08 00:14:59;;;;;;;6.55;4.53;;;;;;;9.95;75.20;93072.44;4202500;28;20118;-75
2024/01/08 00:17:01;;;;;;;6.22;4.35;;;;;;;9.92;75.17;93076.25;4197920;28;20056;-74
2024/01/08 00:19:03;;;;;;;5.97;4.35;;;;;;;9.95;76.04;93082.91;4204892;28;20052;-75
2024/01/08 00:21:05;;;;;;;5.75;4.20;;;;;;;10.00;75.72;93080.50;4198065;28;20127;-74
2024/01/08 00:23:07;;;;;;;6.30;4.57;;;;;;;9.98;75.52;93075.47;4200452;28;20049;-76
2024/01/08 00:25:09;;;;;;;6.38;4.28;;;;;;;9.98;74.96;93079.88;4204379;28;20123;-76
2024/01/08 00:27:11;;;;;;;6.38;4.00;;;;;;;10.01;75.31;93082.94;4197215;28;20067;-78
2024/01/08 00:29:12;;;;;;;6.22;4.45;;;;;;;10.00;74.56;93078.72;4206815;28;20197;-79
2024/01/08 00:31:15;;;;;;;6.00;3.80;;;;;;;10.03;74.77;93085.34;4198534;28;20123;-77
2024/01/08 00:33:17;;;;;;;7.22;3.58;;;;;;;9.99;74.79;93086.75;4204914;28;20059;-79
2024/01/08 00:35:19;;;;;;;5.90;3.28;;;;;;;9.95;74.76;93093.38;4195818;28;20170;-77
2024/01/08 00:37:20;;;;;;;3.72;2.67;;;;;;;9.88;74.42;93088.09;4197609;28;20060;-76
2024/01/08 00:39:23;;;;;;;4.68;2.60;;;;;;;9.82;75.33;93094.91;4203659;28;20126;-76
2024/01/08 00:41:25;;;;;;;3.70;2.17;;;;;;;9.81;74.65;93089.91;4196623;28;20048;-78
2024/01/08 00:43:27;;;;;;;4.13;2.40;;;;;;;9.82;75.25;93094.91;4207429;28;20397;-73
2024/01/08 00:45:29;;;;;;;4.22;2.10;;;;;;;9.86;75.63;93105.00;4200966;28;20070;-73
2024/01/08 00:47:32;;;;;;;3.25;2.25;;;;;;;9.88;75.20;93101.19;4202046;28;20059;-74
2024/01/08 00:49:34;;;;;;;3.38;2.08;;;;;;;9.86;74.67;93100.56;4196394;28;20472;-74
2024/01/08 00:51:36;;;;;;;2.95;1.98;;;;;;;9.87;74.46;93111.84;4197123;28;20048;-73
2024/01/08 00:53:38;;;;;;;3.78;2.40;;;;;;;9.80;74.48;93107.38;4205810;28;20076;-75
2024/01/08 00:55:39;;;;;;;5.75;2.35;;;;;;;9.83;75.22;93112.22;4203058;28;20050;-75
2024/01/08 00:57:41;;;;;;;4.18;2.60;;;;;;;9.90;74.65;93116.69;4207536;28;20082;-76
2024/01/08 00:59:43;;;;;;;3.33;2.33;;;;;;;9.90;74.68;93114.09;4196584;28;20071;-75
2024/01/08 01:01:45;;;;;;;4.20;2.50;;;;;;;9.91;75.18;93111.25;4212110;28;20044;-72
2024/01/08 01:03:48;;;;;;;2.85;2.25;;;;;;;9.91;74.46;93124.31;4198205;28;20066;-76
2024/01/08 01:05:50;;;;;;;3.38;2.40;;;;;;;9.89;74.54;93121.09;4197870;28;20121;-75
2024/01/08 01:07:52;;;;;;;4.28;2.72;;;;;;;9.91;74.77;93123.53;4208691;28;20050;-76
2024/01/08 01:09:55;;;;;;;6.00;2.65;;;;;;;9.89;74.75;93126.31;4208479;28;20048;-74
2024/01/08 01:11:57;;;;;;;4.57;2.80;;;;;;;9.79;74.60;93121.47;4211162;28;20520;-75
2024/01/08 01:13:58;;;;;;;3.88;2.58;;;;;;;9.80;75.17;93124.88;4206448;28;20051;-74
2024/01/08 01:16:00;;;;;;;4.43;2.83;;;;;;;9.73;75.40;93126.66;4195122;28;20045;-74
2024/01/08 01:18:02;;;;;;;4.38;2.80;;;;;;;9.60;75.54;93135.22;4200812;28;20071;-75
2024/01/08 01:20:05;;;;;;;4.35;3.08;;;;;;;9.55;75.71;93133.19;4211335;28;20044;-75
2024/01/08 01:22:07;;;;;;;5.95;3.60;;;;;;;9.47;76.16;93133.31;4199349;28;20417;-75
2024/01/08 01:24:09;;;;;;;5.78;3.70;;;;;;;9.43;76.72;93137.31;4206357;28;20498;-76
2024/01/08 01:26:11;;;;;;;4.68;3.80;;;;;;;9.35;76.68;93137.44;4204530;28;20084;-76
2024/01/08 01:28:13;;;;;;;4.47;3.80;;;;;;;9.28;76.10;93140.00;4202888;28;20067;-78
2024/01/08 01:30:15;;;;;;;7.68;4.22;;;;;;;9.20;76.63;93134.91;4208731;28;20129;-75
2024/01/08 01:32:17;;;;;;;14.00;4.60;;;;;;;9.21;77.19;93137.34;4209337;28;20502;-81
2024/01/08 01:34:19;;;;;;;7.38;4.70;;;;;;;9.31;77.39;93138.81;4205742;28;20101;-75
2024/01/08 01:36:22;;;;;;;6.57;5.03;;;;;;;9.17;77.93;93141.34;4205079;28;20477;-75
2024/01/08 01:38:24;;;;;;;6.63;5.15;;;;;;;9.20;77.54;93145.38;4205566;28;20040;-73
2024/01/08 01:40:25;;;;;;;6.75;5.30;;;;;;;9.01;77.72;93142.41;4204975;28;20059;-74
2024/01/08 01:42:27;;;;;;;6.78;5.47;;;;;;;9.02;77.96;93136.19;4207991;28;20414;-73
2024/01/08 01:44:29;;;;;;;10.65;6.57;;;;;;;9.04;78.04;93143.84;4206865;28;20048;-74
2024/01/08 01:46:50;;;;;;;8.07;6.18;;;;;;;9.04;77.96;93138.63;4210212;28;20102;-77
2024/01/08 01:48:54;;;;;;;8.98;6.13;;;;;;;9.00;78.06;93140.78;4209930;28;20055;-74
2024/01/08 01:50:56;;;;;;;7.50;6.50;;;;;;;9.00;77.70;93142.59;4198258;28;20109;-75
2024/01/08 01:52:58;;;;;;;8.98;6.25;;;;;;;8.94;77.67;93144.16;4200199;28;20677;-75
2024/01/08 01:55:01;;;;;;;7.60;6.10;;;;;;;8.94;78.09;93144.16;4211051;28;20056;-75
2024/01/08 01:57:03;;;;;;;7.10;6.20;;;;;;;8.96;77.71;93147.38;4208176;28;20056;-76
2024/01/08 01:59:07;;;;;;;8.30;6.68;;;;;;;8.98;77.22;93145.38;4193579;28;20090;-76
2024/01/08 02:01:09;;;;;;;7.68;6.55;;;;;;;8.88;77.05;93144.88;4197898;28;20060;-75
2024/01/08 02:03:11;;;;;;;8.60;6.70;;;;;;;8.79;76.70;93149.44;4202829;28;20063;-75
2024/01/08 02:05:14;;;;;;;8.80;6.63;;;;;;;8.70;77.81;93149.75;4205587;28;20074;-75
2024/01/08 02:07:16;;;;;;;8.15;6.60;;;;;;;8.66;77.66;93151.09;4206493;28;20095;-74
2024/01/08 02:09:18;;;;;;;8.15;6.32;;;;;;;8.48;77.84;93151.53;4201345;28;20620;-72
2024/01/08 02:11:21;;;;;;;8.45;6.28;;;;;;;8.50;78.46;93147.75;4203039;28;20048;-74
2024/01/08 02:13:23;;;;;;;9.55;7.10;;;;;;;8.61;77.93;93160.31;4197571;28;20181;-72
2024/01/08 02:15:25;;;;;;;8.73;6.50;;;;;;;8.62;78.09;93153.28;4202422;28;20063;-76
2024/01/08 02:17:26;;;;;;;7.85;6.60;;;;;;;8.63;77.08;93159.31;4200765;28;20154;-76
2024/01/08 02:19:28;;;;;;;7.55;6.10;;;;;;;8.58;76.96;93158.06;4207364;28;20064;-75
2024/01/08 02:21:30;;;;;;;7.47;6.53;;;;;;;8.62;76.79;93161.09;4202181;28;20058;-74
2024/01/08 02:23:33;;;;;;;6.70;5.70;;;;;;;8.64;77.48;93160.94;4204134;28;20062;-74
2024/01/08 02:25:35;;;;;;;6.15;5.25;;;;;;;8.71;76.81;93164.41;4207566;28;20376;-73
2024/01/08 07:53:57;;;;;;;4.25;3.50;;;;;;;5.07;74.37;93689.09;4200522;28;20474;-71
2024/01/08 07:55:59;;;;;;;6.72;4.10;;;;;;;5.06;74.56;93684.88;4202754;28;20048;-74
2024/01/08 07:58:01;;;;;;;5.25;3.72;;;;;;;5.15;74.38;93683.97;4206272;28;20101;-72
2024/01/08 08:00:09;;;;;;;5.93;3.83;;;;;;;5.18;73.47;93686.25;4207130;28;20059;-73
2024/01/08 08:02:11;;;;;;;5.60;3.60;;;;;;;5.22;73.42;93690.19;4192159;28;20120;-74
2024/01/08 08:04:13;;;;;;;5.70;3.40;;;;;;;5.24;73.54;93698.63;4193046;28;20313;-74
2024/01/08 08:06:15;;;;;;;3.92;3.25;;;;;;;5.01;73.51;93690.53;4195537;28;20349;-74
2024/01/08 08:08:17;;;;;;;3.97;3.10;;;;;;;4.84;73.27;93712.09;4192428;28;20052;-72
2024/01/08 08:10:19;;;;;;;4.07;3.33;;;;;;;4.81;74.69;93696.81;4200957;28;20051;-73
2024/01/08 08:12:24;;;;;;;5.55;3.45;;;;;;;4.89;74.76;93720.25;4208952;28;20063;-72
2024/01/08 08:14:26;;;;;;;4.25;3.50;;;;;;;4.87;73.69;93717.00;4194959;28;20044;-73
2024/01/08 08:16:31;;;;;;;4.65;3.70;;;;;;;4.89;74.10;93721.06;4198228;28;20048;-73
2024/01/08 08:18:32;;;;;;;3.35;2.83;;;;;;;4.89;73.72;93725.44;4196520;28;20427;-73
2024/01/08 08:20:36;;;;;;;5.63;4.10;;;;;;;5.07;74.29;93722.84;4195411;28;20596;-72
2024/01/08 08:22:39;;;;;;;4.38;3.25;;;;;;;5.15;73.52;93730.69;4201580;28;20140;-69
2024/01/08 08:24:47;;;;;;;3.25;2.95;;;;;;;5.03;71.95;93735.28;4200712;28;20059;-72
2024/01/08 08:26:49;;;;;;;4.07;2.92;;;;;;;5.07;72.19;93734.03;4201714;28;20044;-84
2024/01/08 08:28:52;;;;;;;4.13;3.17;;;;;;;5.08;72.29;93748.66;4199464;28;20117;-77
2024/01/08 08:30:53;;;;;;;3.88;3.22;;;;;;;5.00;72.02;93747.78;4201547;28;20122;-81
2024/01/08 08:32:58;;;;;;;4.20;3.35;;;;;;;4.99;72.77;93743.53;4206743;28;20122;-74
2024/01/08 08:35:02;;;;;;;6.05;3.58;;;;;;;4.88;72.34;93742.81;4203118;28;20157;-71
2024/01/08 08:37:08;;;;;;;3.33;2.95;;;;;;;4.84;72.63;93751.84;4193654;28;20056;-74
2024/01/08 08:39:10;;;;;;;3.58;2.97;;;;;;;4.87;72.98;93748.94;4194097;28;20060;-76
2024/01/08 08:41:11;;;;;;;5.38;3.30;;;;;;;4.88;72.91;93750.59;4194791;28;20134;-70
2024/01/08 08:43:13;;;;;;;4.93;3.20;;;;;;;4.97;72.18;93748.06;4202475;28;20049;-71
2024/01/08 08:45:17;;;;;;;3.42;2.88;;;;;;;4.84;71.45;93761.38;4204112;28;20534;-88
2024/01/08 08:47:21;;;;;;;3.95;2.90;;;;;;;4.88;72.26;93766.16;4202203;28;20467;-79
2024/01/08 08:49:23;;;;;;;3.97;2.97;;;;;;;4.84;71.00;93769.19;4196237;28;20037;-82
2024/01/08 08:51:29;;;;;;;3.65;2.85;;;;;;;4.88;71.10;93765.31;4208597;28;20520;-84
2024/01/08 08:53:31;;;;;;;5.60;2.90;;;;;;;4.80;71.17;93762.69;4195836;28;20048;-72
2024/01/08 08:55:33;;;;;;;3.78;3.05;;;;;;;4.88;70.95;93768.75;4197935;28;20090;-76
2024/01/08 08:57:36;;;;;;;4.15;3.00;;;;;;;4.81;70.61;93775.47;4204367;28;20223;-79
2024/01/08 08:59:38;;;;;;;3.83;2.97;;;;;;;4.84;70.50;93770.00;4198929;28;20040;-83
2024/01/08 09:01:41;;;;;;;4.93;3.22;;;;;;;4.88;70.54;93776.53;4192740;28;20068;-85
2024/01/08 09:03:43;;;;;;;3.85;2.67;;;;;;;4.86;69.42;93772.44;4192972;28;20131;-80
2024/01/08 09:05:45;;;;;;;5.90;2.88;;;;;;;4.88;69.52;93779.16;4197617;28;20048;-71
2024/01/08 09:07:48;;;;;;;3.53;2.55;;;;;;;4.89;69.70;93777.34;4204874;28;20052;-85
2024/01/08 09:09:51;;;;;;;3.90;2.50;;;;;;;4.87;69.39;93785.28;4205725;28;20052;-81
2024/01/08 09:11:52;;;;;;;4.78;2.90;;;;;;;4.87;69.49;93780.09;4203856;28;20158;-80
2024/01/08 09:13:54;;;;;;;3.83;2.45;;;;;;;4.93;69.81;93784.69;4193900;28;20155;-81
2024/01/08 09:15:56;;;;;;;3.42;2.63;;;;;;;4.91;69.21;93778.84;4202585;28;20473;-79
2024/01/08 09:17:58;;;;;;;3.80;2.72;;;;;;;5.04;69.38;93788.84;4194712;28;20246;-76
2024/01/08 09:20:01;;;;;;;3.90;2.70;;;;;;;5.00;69.21;93781.53;4194865;28;20140;-79
2024/01/08 09:22:03;;;;;;;3.33;2.42;;;;;;;5.04;68.72;93775.88;4196624;28;20115;-76
2024/01/08 09:24:05;;;;;;;5.15;3.25;;;;;;;5.09;68.88;93784.03;4196965;28;20052;-71
2024/01/08 09:26:07;;;;;;;4.03;3.17;;;;;;;4.96;68.82;93793.16;4197559;28;20236;-73
2024/01/08 09:28:09;;;;;;;5.07;3.17;;;;;;;4.89;68.57;93792.94;4198360;28;20064;-74
2024/01/08 09:30:12;;;;;;;4.57;2.60;;;;;;;4.92;67.94;93793.44;4201043;28;20109;-78
2024/01/08 09:32:18;;;;;;;4.45;3.00;;;;;;;4.67;68.54;93788.97;4202372;28;20048;-74
2024/01/08 09:34:20;;;;;;;5.75;3.25;;;;;;;4.82;68.65;93791.84;4203433;28;20056;-75
2024/01/08 09:36:22;;;;;;;5.10;3.83;;;;;;;4.89;68.80;93795.53;4202467;28;20578;-74
2024/01/08 09:38:23;;;;;;;5.80;3.78;;;;;;;4.86;68.79;93796.63;4196536;28;20075;-77
2024/01/08 09:40:25;;;;;;;6.85;3.63;;;;;;;4.82;69.69;93797.06;4195972;28;20135;-73
2024/01/08 09:42:30;;;;;;;5.60;4.40;;;;;;;4.82;69.54;93795.28;4207602;28;20568;-77
2024/01/08 09:44:32;;;;;;;3.92;3.00;;;;;;;4.74;68.71;93797.78;4207626;28;20135;-74
2024/01/08 09:46:39;;;;;;;4.28;3.00;;;;;;;4.60;68.69;93795.69;4211594;28;20105;-74
2024/01/08 09:48:41;;;;;;;4.47;2.92;;;;;;;4.67;68.85;93794.16;4207507;28;20056;-74
2024/01/08 09:50:44;;;;;;;6.30;3.20;;;;;;;4.82;68.83;93799.66;4200057;28;20044;-72
2024/01/08 09:52:46;;;;;;;5.30;3.00;;;;;;;4.81;67.86;93791.06;4207069;28;20050;-71
2024/01/08 09:54:49;;;;;;;4.07;3.33;;;;;;;4.54;68.92;93789.31;4207006;28;20522;-79
2024/01/08 09:56:55;;;;;;;3.95;3.15;;;;;;;4.66;68.90;93800.28;4208690;28;20048;-80
2024/01/08 09:58:56;;;;;;;3.97;3.03;;;;;;;4.68;68.49;93795.78;4207708;28;20140;-82
2024/01/08 10:00:58;;;;;;;4.15;2.97;;;;;;;4.63;67.59;93809.19;4197907;28;20233;-80
2024/01/08 10:03:00;;;;;;;4.10;2.97;;;;;;;4.66;67.33;93795.91;4200438;28;20446;-79
2024/01/08 10:05:02;;;;;;;3.85;3.20;;;;;;;4.76;67.19;93798.47;4202820;28;20132;-82
2024/01/08 10:07:08;;;;;;;4.40;3.22;;;;;;;4.84;67.44;93795.97;4202529;28;20066;-83
2024/01/08 10:09:12;;;;;;;3.33;3.03;;;;;;;4.83;67.27;93801.28;4198938;28;20143;-81
2024/01/08 10:11:14;;;;;;;4.40;3.60;;;;;;;4.72;67.53;93808.31;4203148;28;20044;-81
2024/01/08 10:13:16;;;;;;;5.28;3.58;;;;;;;4.70;67.71;93793.84;4204684;28;20558;-75
2024/01/08 10:15:18;;;;;;;4.35;3.42;;;;;;;4.83;68.10;93798.69;4198433;28;20048;-78
2024/01/08 10:17:21;;;;;;;6.00;3.78;;;;;;;4.73;67.60;93803.94;4201254;28;20514;-75
2024/01/08 10:19:24;;;;;;;5.13;3.38;;;;;;;4.53;67.91;93798.03;4199749;28;20117;-81
2024/01/08 10:21:26;;;;;;;5.45;3.40;;;;;;;4.51;68.08;93798.19;4200549;28;20074;-79
2024/01/08 10:23:28;;;;;;;4.75;3.45;;;;;;;4.55;68.59;93798.72;4187391;28;20118;-77
2024/01/08 10:25:31;;;;;;;5.55;4.13;;;;;;;4.67;68.79;93799.34;4201216;28;20190;-81
2024/01/08 10:27:33;;;;;;;7.32;4.43;;;;;;;4.75;69.23;93798.59;4199693;28;20470;-78
2024/01/08 10:29:36;;;;;;;5.25;4.20;;;;;;;4.73;68.57;93809.13;4208567;28;20052;-80
2024/01/08 10:31:38;;;;;;;4.80;3.70;;;;;;;4.72;69.54;93802.31;4198049;28;20450;-75
2024/01/08 10:33:40;;;;;;;4.53;3.72;;;;;;;4.66;69.15;93797.69;4204574;28;20051;-76
2024/01/08 10:35:42;;;;;;;5.05;3.70;;;;;;;4.67;68.80;93800.16;4205569;28;20044;-77
2024/01/08 10:37:47;;;;;;;5.50;4.15;;;;;;;4.62;69.80;93799.75;4198716;28;20039;-75
2024/01/08 10:39:50;;;;;;;6.90;4.63;;;;;;;4.77;69.27;93796.69;4205286;28;20048;-76
2024/01/08 10:41:53;;;;;;;6.75;4.72;;;;;;;4.89;69.69;93803.31;4201363;28;20522;-76
2024/01/08 10:43:55;;;;;;;6.43;4.50;;;;;;;4.85;69.49;93801.97;4201696;28;20044;-77
2024/01/08 10:46:04;;;;;;;6.75;4.40;;;;;;;4.73;69.76;93803.94;4203001;28;20457;-77
2024/01/08 10:48:11;;;;;;;6.15;3.92;;;;;;;4.65;68.86;93806.47;4202212;28;20614;-81
2024/01/08 10:50:22;;;;;;;4.03;3.25;;;;;;;4.67;68.14;93802.75;4189834;28;20060;-77
2024/01/08 10:52:35;;;;;;;4.35;3.55;;;;;;;4.64;67.30;93800.44;4209550;28;20117;-78
2024/01/08 10:54:57;;;;;;;4.25;3.35;;;;;;;4.68;67.34;93806.16;4207270;28;20059;-75
2024/01/08 10:57:03;;;;;;;4.35;3.20;;;;;;;4.65;67.60;93803.88;4199605;28;20112;-77
2024/01/08 10:59:08;;;;;;;5.18;3.50;;;;;;;4.86;67.26;93811.38;4209394;28;20093;-76
2024/01/08 11:01:10;;;;;;;4.25;3.53;;;;;;;4.79;67.15;93803.34;4201765;28;20566;-80
2024/01/08 11:03:12;;;;;;;5.28;4.10;;;;;;;4.80;68.71;93814.56;4209540;28;20411;-78
2024/01/08 11:05:16;;;;;;;5.90;3.90;;;;;;;4.86;68.61;93809.63;4205263;28;20056;-79
2024/01/08 11:07:19;;;;;;;5.43;3.35;;;;;;;4.82;67.20;93816.06;4205972;28;20526;-79
2024/01/08 11:09:31;;;;;;;4.28;3.00;;;;;;;4.57;67.52;93812.34;4198427;28;20488;-81
2024/01/08 11:11:34;;;;;;;4.20;3.45;;;;;;;4.63;67.45;93816.97;4204642;28;20150;-79
2024/01/08 11:13:38;;;;;;;4.40;3.08;;;;;;;4.62;67.13;93817.09;4201905;28;20184;-77
2024/01/08 11:15:43;;;;;;;5.85;3.20;;;;;;;4.39;67.51;93822.69;4198750;28;20051;-78
2024/01/08 11:17:52;;;;;;;5.00;3.60;;;;;;;4.31;67.08;93820.78;4205586;28;20477;-77
2024/01/08 11:19:57;;;;;;;4.93;3.10;;;;;;;4.49;67.73;93823.44;4196266;28;20045;-74
2024/01/08 11:22:10;;;;;;;;;;;;;;;4.37;67.59;93824.59;4199037;28;20861;-76
2024/01/08 11:24:12;;;;;;;6.03;4.10;;;;;;;4.18;67.98;93830.69;4203313;28;19924;-78
2024/01/08 11:26:19;;;;;;;5.40;3.88;;;;;;;4.22;68.38;93831.22;4206366;28;20055;-76
2024/01/08 11:28:21;;;;;;;5.25;4.00;;;;;;;4.39;68.26;93830.47;4204776;28;20117;-73
2024/01/08 11:30:23;;;;;;;6.00;4.05;;;;;;;4.52;68.31;93827.56;4198300;28;20452;-82
2024/01/08 11:32:48;;;;;;;6.03;4.35;;;;;;;4.38;68.91;93825.41;4198972;28;20054;-79
2024/01/08 11:34:56;;;;;;;5.38;3.97;;;;;;;4.45;68.22;93831.66;4189605;28;20139;-81
2024/01/08 11:37:32;;;;;;;4.50;3.72;;;;;;;4.43;67.85;93833.56;4204478;28;20487;-83
2024/01/08 11:39:39;;;;;;;4.80;3.78;;;;;;;4.40;68.34;93849.44;4194491;28;20452;-76
2024/01/08 11:41:41;;;;;;;4.25;3.53;;;;;;;4.32;68.00;93829.38;4194272;28;20063;-80
2024/01/08 11:43:43;;;;;;;4.72;3.83;;;;;;;4.30;68.83;93844.25;4194966;28;20103;-81
2024/01/08 11:45:45;;;;;;;9.50;4.25;;;;;;;4.24;69.18;93837.88;4206314;28;20044;-84
2024/01/08 11:47:47;;;;;;;5.68;4.53;;;;;;;4.36;68.93;93832.53;4205051;28;20406;-86
2024/01/08 11:49:51;;;;;;;5.32;4.22;;;;;;;4.16;68.66;93839.56;4202508;28;20411;-84
2024/01/08 11:51:56;;;;;;;5.18;4.38;;;;;;;4.29;68.22;93833.09;4198498;28;20455;-81
2024/01/08 11:54:08;;;;;;;4.65;3.92;;;;;;;4.31;67.87;93836.34;4194616;28;20044;-83
2024/01/08 11:56:10;;;;;;;5.55;4.47;;;;;;;4.10;68.67;93841.75;4209322;28;20063;-84
2024/01/08 11:58:12;;;;;;;6.15;4.40;;;;;;;4.04;69.38;93834.56;4196913;28;20614;-83
2024/01/08 12:00:18;;;;;;;4.65;4.03;;;;;;;4.07;68.76;93842.03;4202930;28;20080;-82
2024/01/08 12:02:27;;;;;;;7.03;4.40;;;;;;;4.00;68.78;93853.94;4193929;28;20072;-82
2024/01/08 12:04:29;;;;;;;6.68;4.10;;;;;;;3.74;69.12;93847.69;4202577;28;20094;-80
2024/01/08 12:06:31;;;;;;;7.07;4.10;;;;;;;3.86;69.00;93849.97;4208982;28;20056;-79
2024/01/08 12:08:34;;;;;;;7.10;4.00;;;;;;;4.03;68.84;93848.44;4207762;28;20144;-80
2024/01/08 12:10:37;;;;;;;7.78;5.32;;;;;;;4.12;68.73;93848.56;4207731;28;20056;-82
2024/01/08 12:12:40;;;;;;;7.05;4.70;;;;;;;4.31;69.28;93862.28;4208553;28;20058;-80
2024/01/08 12:14:43;;;;;;;8.35;5.38;;;;;;;4.39;68.55;93864.19;4201487;28;20599;-81
2024/01/08 12:16:45;;;;;;;5.15;4.65;;;;;;;4.43;68.42;93857.75;4195808;28;20461;-80
2024/01/08 12:19:03;;;;;;;6.72;4.28;;;;;;;4.33;67.24;93856.97;4191443;28;20451;-74
2024/01/08 12:21:05;;;;;;;5.75;4.50;;;;;;;4.23;67.74;93861.34;4200164;28;20295;-78
2024/01/08 12:23:07;;;;;;;7.07;5.15;;;;;;;4.28;69.08;93866.91;4207907;28;20593;-78
2024/01/08 12:25:10;;;;;;;5.70;4.75;;;;;;;4.34;69.04;93866.38;4203803;28;20351;-74
2024/01/08 12:27:15;;;;;;;6.32;5.38;;;;;;;4.25;68.66;93867.22;4205138;28;20052;-79
2024/01/08 12:29:17;;;;;;;5.20;4.05;;;;;;;4.16;68.02;93865.47;4206461;28;20134;-78
2024/01/08 12:31:22;;;;;;;5.57;4.63;;;;;;;4.30;68.79;93877.97;4201618;28;20345;-79
2024/01/08 12:33:24;;;;;;;5.55;4.50;;;;;;;4.29;67.62;93874.56;4204340;28;20055;-75
2024/01/08 12:35:27;;;;;;;8.15;5.40;;;;;;;4.41;68.21;93866.59;4196764;28;20045;-79
2024/01/08 12:37:32;;;;;;;5.70;4.68;;;;;;;4.51;67.65;93876.00;4206971;28;20134;-82
2024/01/08 12:39:36;;;;;;;5.78;4.63;;;;;;;4.51;67.88;93873.41;4207394;28;20121;-70
2024/01/08 12:41:37;;;;;;;5.97;4.95;;;;;;;4.39;66.53;93873.72;4205115;28;20394;-74
2024/01/08 12:43:43;;;;;;;7.15;5.07;;;;;;;4.46;67.02;93875.63;4194596;28;20048;-78
2024/01/08 12:45:52;;;;;;;5.97;5.05;;;;;;;4.53;67.74;93870.66;4195142;28;20055;-78
2024/01/08 12:47:54;;;;;;;6.80;5.15;;;;;;;4.54;66.40;93885.28;4193034;28;20044;-80
2024/01/08 12:49:56;;;;;;;6.93;5.93;;;;;;;4.45;67.11;93889.56;4204958;28;20043;-82
2024/01/08 12:52:00;;;;;;;8.40;5.30;;;;;;;4.23;67.60;93889.88;4193807;28;20131;-73
2024/01/08 12:54:02;;;;;;;9.65;4.70;;;;;;;4.16;67.91;93894.00;4192755;28;20151;-75
2024/01/08 12:56:04;;;;;;;6.68;5.03;;;;;;;4.10;67.58;93900.53;4203194;28;20075;-76
2024/01/08 12:58:07;;;;;;;6.20;5.20;;;;;;;4.24;66.94;93897.53;4196830;28;20461;-78
2024/01/08 13:00:13;;;;;;;5.82;4.63;;;;;;;4.25;66.53;93898.34;4193854;28;20044;-74
2024/01/08 13:02:15;;;;;;;5.07;4.22;;;;;;;4.18;66.96;93898.06;4197339;28;20506;-79
2024/01/08 13:04:18;;;;;;;7.30;5.57;;;;;;;4.13;66.84;93907.22;4199113;28;20040;-77
2024/01/08 13:06:22;;;;;;;5.57;4.88;;;;;;;4.19;66.32;93904.88;4197410;28;20135;-77
2024/01/08 13:08:41;;;;;;;5.78;4.60;;;;;;;4.03;67.00;93910.66;4208136;28;20481;-77
2024/01/08 13:10:44;;;;;;;6.22;5.40;;;;;;;3.91;66.84;93906.56;4197784;28;20562;-69
2024/01/08 13:12:46;;;;;;;7.60;5.20;;;;;;;4.02;67.22;93922.00;4199804;28;20429;-71
2024/01/08 13:14:48;;;;;;;5.97;4.30;;;;;;;4.18;66.64;93915.41;4192363;28;20052;-73
2024/01/08 13:16:50;;;;;;;7.15;4.82;;;;;;;4.05;65.88;93918.28;4194642;28;20115;-73
2024/01/08 13:18:52;;;;;;;5.18;4.20;;;;;;;4.10;65.87;93916.91;4192436;28;20082;-71
2024/01/08 13:20:54;;;;;;;5.50;4.43;;;;;;;4.13;65.77;93918.44;4203919;28;20780;-70
2024/01/08 13:22:56;;;;;;;5.50;4.45;;;;;;;4.05;65.94;93923.47;4197932;28;20632;-74
2024/01/08 13:25:00;;;;;;;7.75;5.20;;;;;;;4.15;68.00;93920.84;4202802;28;20097;-72
2024/01/08 13:27:03;;;;;;;11.93;5.97;;;;;;;4.08;69.64;93930.97;4201311;28;20259;-72
2024/01/08 13:29:06;;;;;;;5.90;4.75;;;;;;;4.00;66.97;93931.66;4206897;28;20103;-72
2024/01/08 13:31:12;;;;;;;5.85;4.78;;;;;;;3.86;66.57;93924.31;4199015;28;20216;-73
2024/01/08 13:33:14;;;;;;;5.43;4.63;;;;;;;3.92;66.84;93922.94;4195464;28;20121;-68
2024/01/08 13:35:16;;;;;;;5.82;4.95;;;;;;;4.00;65.83;93926.50;4203961;28;20048;-68
2024/01/08 13:37:18;;;;;;;5.40;4.22;;;;;;;3.86;65.48;93932.09;4205739;28;20075;-70
2024/01/08 13:39:20;;;;;;;5.28;4.07;;;;;;;3.52;66.54;93937.66;4197577;28;20087;-71
2024/01/08 13:41:22;;;;;;;6.30;4.80;;;;;;;3.57;67.03;93935.50;4197341;28;20428;-72
2024/01/08 13:43:25;;;;;;;6.43;4.88;;;;;;;3.66;66.81;93932.09;4202150;28;20056;-72
2024/01/08 13:45:27;;;;;;;5.13;4.45;;;;;;;3.72;66.70;93946.25;4198503;28;20050;-76
2024/01/08 13:47:30;;;;;;;4.95;4.35;;;;;;;3.73;66.34;93937.53;4201020;28;20414;-75
2024/01/08 13:49:32;;;;;;;5.78;4.95;;;;;;;3.84;66.27;93947.75;4196899;28;20461;-73
2024/01/08 13:51:35;;;;;;;6.28;4.43;;;;;;;3.91;65.69;93953.22;4206564;28;20052;-75
2024/01/08 13:53:37;;;;;;;5.28;4.10;;;;;;;3.89;65.88;93947.34;4203274;28;20113;-72
2024/01/08 13:55:39;;;;;;;6.35;5.13;;;;;;;3.79;65.93;93954.31;4194337;28;20467;-76
2024/01/08 13:57:40;;;;;;;8.07;4.97;;;;;;;3.74;65.70;93948.72;4191450;28;20061;-74
2024/01/08 13:59:42;;;;;;;5.90;5.05;;;;;;;3.76;66.22;93957.16;4194596;28;20091;-74
2024/01/08 14:01:44;;;;;;;6.15;5.15;;;;;;;3.74;66.32;93962.47;4193607;28;20059;-74
2024/01/08 14:03:46;;;;;;;5.35;4.70;;;;;;;3.55;65.95;93962.47;4199154;28;20188;-76
2024/01/08 14:05:48;;;;;;;6.35;4.97;;;;;;;3.52;66.38;93965.31;4204267;28;20461;-74
2024/01/08 14:07:50;;;;;;;7.07;5.78;;;;;;;3.68;65.99;93970.81;4212048;28;20057;-76
2024/01/08 14:09:52;;;;;;;7.32;5.18;;;;;;;3.80;65.93;93964.53;4211824;28;20550;-75
2024/01/08 14:11:54;;;;;;;9.88;6.22;;;;;;;3.83;65.20;93963.44;4210364;28;20473;-73
2024/01/08 14:13:56;;;;;;;8.85;6.40;;;;;;;3.90;65.43;93969.72;4211467;28;20109;-74
2024/01/08 14:15:58;;;;;;;9.63;6.97;;;;;;;3.99;65.03;93975.84;4197233;28;20036;-75
2024/01/08 14:18:00;;;;;;;7.65;6.28;;;;;;;3.98;65.68;93975.06;4204657;28;20441;-73
2024/01/08 14:20:02;;;;;;;10.02;7.40;;;;;;;4.05;65.24;93977.91;4208493;28;20066;-72
2024/01/08 14:22:05;;;;;;;8.85;6.80;;;;;;;4.03;65.10;93979.81;4196696;28;20074;-74
2024/01/08 14:24:07;;;;;;;8.60;5.82;;;;;;;4.04;64.84;93982.28;4208697;28;20043;-73
2024/01/08 14:26:09;;;;;;;8.43;6.38;;;;;;;4.10;64.98;93983.50;4209697;28;20462;-75
2024/01/08 14:28:11;;;;;;;7.35;5.93;;;;;;;3.92;65.42;93985.16;4201725;28;20139;-75
2024/01/08 14:30:13;;;;;;;6.78;5.68;;;;;;;3.88;65.88;93989.78;4200934;28;20056;-73
2024/01/08 14:32:15;;;;;;;7.85;6.55;;;;;;;3.81;66.13;93993.88;4207458;28;20056;-75
2024/01/08 14:34:18;;;;;;;;;;;;;;;3.85;66.02;94000.38;4200942;28;20372;-76
2024/01/08 14:36:20;;;;;;;8.07;5.60;;;;;;;3.77;66.11;93995.09;4198201;28;20034;-76
2024/01/08 14:38:22;;;;;;;6.50;5.72;;;;;;;3.76;66.40;94003.78;4207360;28;20172;-74
2024/01/08 14:40:27;;;;;;;7.75;6.20;;;;;;;3.79;66.34;94000.94;4207414;28;20048;-75
2024/01/08 14:42:29;;;;;;;11.30;6.20;;;;;;;3.80;66.10;94018.94;4209263;28;20139;-76
2024/01/08 14:44:33;;;;;;;7.68;6.22;;;;;;;3.69;66.00;94006.91;4208120;28;20048;-74
2024/01/08 14:46:35;;;;;;;8.48;6.20;;;;;;;3.64;66.20;94006.53;4210137;28;20355;-73
2024/01/08 14:48:37;;;;;;;7.05;6.35;;;;;;;3.62;66.50;94007.59;4197346;28;20095;-72
2024/01/08 14:50:39;;;;;;;11.10;7.78;;;;;;;3.74;66.95;94006.50;4199722;28;20083;-77
2024/01/08 14:52:41;;;;;;;9.70;7.57;;;;;;;3.87;66.84;94008.84;4203978;28;20056;-74
2024/01/08 14:54:43;;;;;;;9.35;6.55;;;;;;;3.85;66.30;94011.59;4200336;28;20131;-76
2024/01/08 14:56:45;;;;;;;9.80;6.85;;;;;;;3.68;66.33;94015.66;4207063;28;20098;-75
2024/01/08 14:58:47;;;;;;;9.63;7.60;;;;;;;3.60;66.73;94014.69;4206476;28;20048;-74
2024/01/08 15:00:49;;;;;;;9.70;7.45;;;;;;;3.76;66.39;94017.56;4206127;28;20051;-74
2024/01/08 15:02:52;;;;;;;9.52;7.32;;;;;;;3.83;65.74;94026.47;4206237;28;20130;-76
2024/01/08 15:04:54;;;;;;;10.07;7.65;;;;;;;3.72;66.74;94029.16;4210679;28;20058;-74
2024/01/08 15:06:56;;;;;;;9.18;7.57;;;;;;;3.20;67.39;94026.69;4196727;28;20455;-74
2024/01/08 15:08:58;;;;;;;10.15;7.13;;;;;;;3.14;66.74;94036.75;4204145;28;20082;-75
2024/01/08 15:11:04;;;;;;;8.15;5.60;;;;;;;3.10;66.81;94041.38;4204188;28;20059;-78
2024/01/08 15:13:07;;;;;;;8.30;6.20;;;;;;;3.01;67.21;94034.38;4198084;28;20040;-77